createdAt,value
2019-05-14T00:01:04.675Z,25.50
2019-05-14T00:03:37.460Z,25.50
2019-05-14T00:06:11.491Z,25.50
2019-05-14T00:08:45.663Z,25.50
2019-05-14T00:11:18.033Z,25.60
2019-05-14T00:13:51.845Z,25.60
2019-05-14T00:16:24.322Z,25.60
2019-05-14T00:18:57.327Z,25.60
2019-05-14T00:21:31.554Z,25.60
2019-05-14T00:24:04.369Z,25.60
2019-05-14T00:26:38.185Z,25.60
2019-05-14T00:29:11.334Z,25.70
2019-05-14T00:31:45.837Z,25.70
2019-05-14T00:34:18.524Z,25.80
2019-05-14T00:36:52.423Z,25.80
2019-05-14T00:39:26.969Z,25.80
2019-05-14T00:41:58.368Z,25.90
2019-05-14T00:44:32.413Z,25.90
2019-05-14T00:47:11.211Z,25.90
2019-05-14T00:49:43.838Z,25.90
2019-05-14T00:52:15.253Z,25.90
2019-05-14T00:54:47.565Z,25.90
2019-05-14T00:57:21.172Z,25.90
2019-05-14T00:59:54.009Z,25.90
2019-05-14T01:02:26.955Z,25.90
2019-05-14T01:05:01.700Z,25.90
2019-05-14T01:07:32.408Z,26.00
2019-05-14T01:10:04.086Z,26.10
2019-05-14T01:12:38.232Z,26.10
2019-05-14T01:15:13.385Z,26.20
2019-05-14T01:17:42.859Z,26.30
2019-05-14T01:20:16.793Z,26.40
2019-05-14T01:22:48.472Z,26.40
2019-05-14T01:25:23.846Z,26.50
2019-05-14T01:27:55.586Z,26.50
2019-05-14T01:30:26.813Z,26.60
2019-05-14T01:33:01.724Z,26.60
2019-05-14T01:35:34.531Z,26.70
2019-05-14T01:38:05.765Z,26.70
2019-05-14T01:40:38.409Z,26.80
2019-05-14T01:43:11.542Z,26.90
2019-05-14T01:45:43.147Z,26.90
2019-05-14T01:48:14.837Z,26.90
2019-05-14T01:50:46.518Z,27.00
2019-05-14T01:53:17.988Z,27.00
2019-05-14T01:55:52.024Z,27.00
2019-05-14T01:58:24.924Z,27.10
2019-05-14T02:00:58.822Z,27.10
2019-05-14T02:03:32.327Z,27.20
2019-05-14T02:06:07.959Z,27.20
2019-05-14T02:08:41.391Z,27.30
2019-05-14T02:11:15.693Z,27.30
2019-05-14T02:13:48.596Z,27.30
2019-05-14T02:16:21.943Z,27.40
2019-05-14T02:18:53.677Z,27.40
2019-05-14T02:21:26.428Z,27.40
2019-05-14T02:23:59.104Z,27.40
2019-05-14T02:26:31.716Z,27.40
2019-05-14T02:29:05.033Z,27.40
2019-05-14T02:31:39.291Z,27.40
2019-05-14T02:34:12.030Z,27.40
2019-05-14T02:36:49.699Z,27.40
2019-05-14T02:39:22.702Z,27.40
2019-05-14T02:41:54.969Z,27.50
2019-05-14T02:44:29.779Z,27.50
2019-05-14T02:47:02.637Z,27.60
2019-05-14T02:49:35.062Z,27.70
2019-05-14T02:52:10.090Z,27.80
2019-05-14T02:54:43.026Z,27.90
2019-05-14T02:57:15.874Z,28.00
2019-05-14T02:59:50.101Z,28.00
2019-05-14T03:02:22.316Z,28.10
2019-05-14T03:04:55.131Z,28.10
2019-05-14T03:07:29.785Z,28.10
2019-05-14T03:10:02.587Z,28.10
2019-05-14T03:12:34.220Z,28.20
2019-05-14T03:15:09.719Z,28.20
2019-05-14T03:17:42.963Z,28.20
2019-05-14T03:20:19.660Z,28.20
2019-05-14T03:23:05.039Z,28.20
2019-05-14T03:25:31.837Z,28.20
2019-05-14T03:28:08.995Z,28.10
2019-05-14T03:30:42.486Z,28.10
2019-05-14T03:33:14.085Z,28.10
2019-05-14T03:35:56.231Z,28.00
2019-05-14T03:38:21.725Z,28.00
2019-05-14T03:40:54.253Z,28.00
2019-05-14T03:43:29.379Z,28.00
2019-05-14T03:46:01.894Z,28.10
2019-05-14T03:48:34.627Z,28.10
2019-05-14T03:51:10.302Z,28.30
2019-05-14T03:53:57.032Z,28.40
2019-05-14T03:56:23.841Z,28.60
2019-05-14T03:59:00.037Z,28.60
2019-05-14T04:01:33.249Z,28.70
2019-05-14T04:04:09.949Z,28.70
2019-05-14T04:06:41.904Z,28.80
2019-05-14T04:09:20.127Z,28.90
2019-05-14T04:11:50.461Z,29.00
2019-05-14T04:14:23.169Z,29.20
2019-05-14T04:17:05.411Z,29.30
2019-05-14T04:19:29.630Z,29.40
2019-05-14T04:22:02.426Z,29.60
2019-05-14T04:24:41.873Z,29.70
2019-05-14T04:27:20.325Z,30.00
2019-05-14T04:29:54.174Z,30.10
2019-05-14T04:32:29.208Z,30.10
2019-05-14T04:35:00.363Z,30.20
2019-05-14T04:37:32.093Z,30.20
2019-05-14T04:40:04.826Z,30.20
2019-05-14T04:42:40.094Z,30.20
2019-05-14T04:45:12.877Z,30.30
2019-05-14T04:47:49.473Z,30.40
2019-05-14T04:50:20.109Z,30.40
2019-05-14T04:52:51.735Z,30.40
2019-05-14T04:55:23.288Z,30.40
2019-05-14T04:57:58.883Z,30.50
2019-05-14T05:00:31.554Z,30.50
2019-05-14T05:03:08.214Z,30.50
2019-05-14T05:05:45.188Z,30.60
2019-05-14T05:08:30.894Z,30.80
2019-05-14T05:11:11.670Z,31.00
2019-05-14T05:13:52.226Z,31.20
2019-05-14T05:19:29.417Z,31.50
2019-05-14T05:22:03.000Z,31.60
2019-05-14T05:25:59.582Z,31.60
2019-05-14T05:27:28.722Z,31.70
2019-05-14T05:30:15.494Z,31.80
2019-05-14T05:33:03.268Z,31.80
2019-05-14T05:38:43.611Z,31.90
2019-05-14T05:41:22.615Z,31.90
2019-05-14T05:43:54.477Z,31.80
2019-05-14T05:46:28.511Z,32.00
2019-05-14T05:49:03.212Z,32.10
2019-05-14T05:51:36.387Z,32.20
2019-05-14T05:54:09.254Z,32.30
2019-05-14T05:56:44.085Z,32.40
2019-05-14T05:59:18.753Z,32.50
2019-05-14T06:01:53.832Z,32.50
2019-05-14T06:04:23.340Z,32.50
2019-05-14T06:06:58.531Z,32.50
2019-05-14T06:09:29.852Z,32.50
2019-05-14T06:12:02.682Z,32.50
2019-05-14T06:14:38.021Z,32.60
2019-05-14T06:17:10.173Z,32.70
2019-05-14T06:19:42.837Z,32.80
2019-05-14T06:22:18.897Z,32.80
2019-05-14T06:24:50.984Z,32.90
2019-05-14T06:27:25.569Z,32.80
2019-05-14T06:29:58.309Z,32.80
2019-05-14T06:32:30.327Z,32.80
2019-05-14T06:35:02.035Z,32.80
2019-05-14T06:37:34.615Z,32.70
2019-05-14T06:40:10.532Z,32.70
2019-05-14T06:42:42.321Z,32.80
2019-05-14T06:45:18.694Z,33.00
2019-05-14T06:47:53.537Z,33.20
2019-05-14T06:50:28.499Z,33.30
2019-05-14T06:53:02.772Z,33.30
2019-05-14T06:55:36.039Z,33.20
2019-05-14T06:58:09.199Z,33.20
2019-05-14T07:00:43.812Z,33.20
2019-05-14T07:03:18.016Z,33.20
2019-05-14T07:05:54.245Z,33.20
2019-05-14T07:08:28.272Z,33.10
2019-05-14T07:10:59.491Z,32.90
2019-05-14T07:13:32.021Z,32.80
2019-05-14T07:16:11.141Z,32.80
2019-05-14T07:18:48.799Z,32.70
2019-05-14T07:21:19.367Z,32.60
2019-05-14T07:23:53.833Z,32.70
2019-05-14T07:26:25.559Z,32.70
2019-05-14T07:29:01.885Z,32.80
2019-05-14T07:31:34.084Z,32.90
2019-05-14T07:34:08.832Z,32.90
2019-05-14T07:36:39.914Z,32.80
2019-05-14T07:39:12.739Z,32.70
2019-05-14T07:41:47.873Z,32.70
2019-05-14T07:44:18.415Z,32.60
2019-05-14T07:46:58.813Z,32.60
2019-05-14T07:49:30.394Z,32.50
2019-05-14T07:52:05.086Z,32.50
2019-05-14T07:54:38.996Z,32.50
2019-05-14T07:57:13.675Z,32.40
2019-05-14T07:59:48.463Z,32.40
2019-05-14T08:02:23.185Z,32.30
2019-05-14T08:04:58.675Z,32.30
2019-05-14T08:07:31.497Z,32.10
2019-05-14T08:10:06.284Z,32.00
2019-05-14T08:12:39.145Z,32.00
2019-05-14T08:15:17.777Z,31.90
2019-05-14T08:17:51.380Z,31.80
2019-05-14T08:20:23.956Z,31.80
2019-05-14T08:22:58.503Z,31.70
2019-05-14T08:25:32.739Z,31.70
2019-05-14T08:28:08.112Z,31.70
2019-05-14T08:30:42.601Z,31.70
2019-05-14T08:33:15.346Z,31.70
2019-05-14T08:35:50.101Z,31.70
2019-05-14T08:38:24.293Z,31.60
2019-05-14T08:40:58.727Z,31.60
2019-05-14T08:43:34.110Z,31.50
2019-05-14T08:46:08.173Z,31.50
2019-05-14T08:48:40.522Z,31.60
2019-05-14T08:51:15.251Z,31.60
2019-05-14T08:53:50.588Z,31.60
2019-05-14T08:56:23.382Z,31.70
2019-05-14T08:58:55.140Z,31.60
2019-05-14T09:01:29.303Z,31.60
2019-05-14T09:04:03.154Z,31.50
2019-05-14T09:06:38.278Z,31.50
2019-05-14T09:09:10.640Z,31.30
2019-05-14T09:11:46.342Z,31.20
2019-05-14T09:14:18.907Z,31.20
2019-05-14T09:16:52.155Z,31.10
2019-05-14T09:19:24.966Z,31.10
2019-05-14T09:21:58.773Z,31.00
2019-05-14T09:24:32.884Z,31.00
2019-05-14T09:27:10.024Z,31.00
2019-05-14T09:29:42.685Z,31.10
2019-05-14T09:32:19.067Z,31.10
2019-05-14T09:34:50.945Z,31.10
2019-05-14T09:37:28.752Z,31.10
2019-05-14T09:40:00.794Z,31.20
2019-05-14T09:42:33.178Z,31.10
2019-05-14T09:45:10.521Z,31.10
2019-05-14T09:47:48.169Z,31.00
2019-05-14T09:50:23.196Z,31.00
2019-05-14T09:52:53.466Z,31.00
2019-05-14T09:55:28.110Z,31.00
2019-05-14T09:58:01.626Z,31.10
2019-05-14T10:00:35.857Z,31.20
2019-05-14T10:03:12.577Z,31.20
2019-05-14T10:05:50.004Z,31.30
2019-05-14T10:08:23.918Z,31.30
2019-05-14T10:11:00.208Z,31.30
2019-05-14T10:13:34.465Z,31.30
2019-05-14T10:16:10.454Z,31.30
2019-05-14T10:18:44.182Z,31.20
2019-05-14T10:21:19.022Z,31.20
2019-05-14T10:23:54.133Z,31.10
2019-05-14T10:26:28.851Z,31.10
2019-05-14T10:29:00.824Z,31.20
2019-05-14T10:31:33.121Z,31.10
2019-05-14T10:34:08.393Z,31.20
2019-05-14T10:36:40.576Z,31.10
2019-05-14T10:39:13.035Z,31.10
2019-05-14T10:41:45.621Z,31.10
2019-05-14T10:44:20.131Z,31.00
2019-05-14T10:46:51.692Z,31.00
2019-05-14T10:49:24.079Z,31.00
2019-05-14T10:51:58.456Z,31.00
2019-05-14T10:54:30.561Z,31.00
2019-05-14T10:57:04.324Z,31.00
2019-05-14T10:59:36.813Z,30.90
2019-05-14T11:02:11.968Z,30.90
2019-05-14T11:04:50.454Z,30.90
2019-05-14T11:07:26.023Z,30.80
2019-05-14T11:09:59.543Z,30.70
2019-05-14T11:12:35.057Z,30.60
2019-05-14T11:15:10.198Z,30.60
2019-05-14T11:17:41.610Z,30.50
2019-05-14T11:20:13.323Z,30.40
2019-05-14T11:22:48.910Z,30.40
2019-05-14T11:25:19.859Z,30.40
2019-05-14T11:27:53.906Z,30.30
2019-05-14T11:30:25.361Z,30.30
2019-05-14T11:32:59.698Z,30.30
2019-05-14T11:35:31.933Z,30.20
2019-05-14T11:38:04.535Z,30.20
2019-05-14T11:40:40.552Z,30.20
2019-05-14T11:43:13.129Z,30.10
2019-05-14T11:45:48.440Z,30.10
2019-05-14T11:48:21.206Z,30.00
2019-05-14T11:50:59.339Z,30.00
2019-05-14T11:53:32.304Z,30.00
2019-05-14T11:56:04.886Z,29.90
2019-05-14T11:58:38.876Z,29.90
2019-05-14T12:01:11.879Z,29.90
2019-05-14T12:03:44.564Z,29.80
2019-05-14T12:06:18.927Z,29.70
2019-05-14T12:08:53.154Z,29.70
2019-05-14T12:11:25.788Z,29.60
2019-05-14T12:14:00.392Z,29.60
2019-05-14T12:16:34.846Z,29.50
2019-05-14T12:19:11.621Z,29.40
2019-05-14T12:21:58.720Z,29.40
2019-05-14T12:24:21.039Z,29.40
2019-05-14T12:26:54.029Z,29.30
2019-05-14T12:29:28.908Z,29.30
2019-05-14T12:32:00.832Z,29.30
2019-05-14T12:34:33.242Z,29.30
2019-05-14T12:37:05.418Z,29.20
2019-05-14T12:39:38.006Z,29.10
2019-05-14T12:42:11.109Z,29.10
2019-05-14T12:44:44.088Z,29.00
2019-05-14T12:47:18.706Z,29.00
2019-05-14T12:49:52.213Z,28.90
2019-05-14T12:52:29.672Z,28.90
2019-05-14T12:55:02.559Z,28.80
2019-05-14T12:57:35.286Z,28.80
2019-05-14T13:00:09.799Z,28.80
2019-05-14T13:02:44.656Z,28.80
2019-05-14T13:05:19.140Z,28.80
2019-05-14T13:07:54.348Z,28.80
2019-05-14T13:10:26.001Z,28.80
2019-05-14T13:13:00.058Z,28.80
2019-05-14T13:15:33.585Z,28.70
2019-05-14T13:18:08.704Z,28.70
2019-05-14T13:20:40.288Z,28.70
2019-05-14T13:23:12.832Z,28.70
2019-05-14T13:25:44.349Z,28.70
2019-05-14T13:28:19.197Z,28.70
2019-05-14T13:30:52.407Z,28.70
2019-05-14T13:33:28.400Z,28.70
2019-05-14T13:36:05.974Z,28.70
2019-05-14T13:38:39.605Z,28.70
2019-05-14T13:41:12.802Z,28.70
2019-05-14T13:43:50.114Z,28.70
2019-05-14T13:46:22.478Z,28.70
2019-05-14T13:48:54.680Z,28.70
2019-05-14T13:51:33.928Z,28.70
2019-05-14T13:54:08.663Z,28.70
2019-05-14T13:56:53.348Z,28.70
2019-05-14T13:59:27.306Z,28.70
2019-05-14T14:02:03.608Z,28.70
2019-05-14T14:04:38.058Z,28.70
2019-05-14T14:07:15.333Z,28.60
2019-05-14T14:09:53.449Z,28.60
2019-05-14T14:12:33.888Z,28.50
2019-05-14T14:15:09.222Z,28.50
2019-05-14T14:17:42.157Z,28.50
2019-05-14T14:20:14.735Z,28.50
2019-05-14T14:22:49.019Z,28.50
2019-05-14T14:25:29.552Z,28.50
2019-05-14T14:28:03.995Z,28.50
2019-05-14T14:30:39.550Z,28.50
2019-05-14T14:33:13.707Z,28.50
2019-05-14T14:35:53.205Z,28.50
2019-05-14T14:38:29.268Z,28.50
2019-05-14T14:41:01.796Z,28.40
2019-05-14T14:43:34.606Z,28.50
2019-05-14T14:46:14.206Z,28.40
2019-05-14T14:48:49.011Z,28.50
2019-05-14T14:51:20.221Z,28.40
2019-05-14T14:54:00.170Z,28.40
2019-05-14T14:56:28.406Z,28.40
2019-05-14T14:59:01.414Z,28.30
2019-05-14T15:01:35.634Z,28.30
2019-05-14T15:04:13.605Z,28.30
2019-05-14T15:06:43.275Z,28.20
2019-05-14T15:09:16.718Z,28.20
2019-05-14T15:11:51.124Z,28.20
2019-05-14T15:14:22.483Z,28.10
2019-05-14T15:16:56.154Z,28.20
2019-05-14T15:19:29.841Z,28.20
2019-05-14T15:22:01.668Z,28.20
2019-05-14T15:24:33.078Z,28.10
2019-05-14T15:27:14.126Z,28.10
2019-05-14T15:29:42.838Z,28.10
2019-05-14T15:32:12.998Z,28.10
2019-05-14T15:34:50.293Z,28.00
2019-05-14T15:37:21.088Z,28.00
2019-05-14T15:39:53.831Z,28.00
2019-05-14T15:42:31.605Z,28.00
2019-05-14T15:45:04.535Z,28.00
2019-05-14T15:47:38.993Z,28.00
2019-05-14T15:50:11.417Z,28.00
2019-05-14T15:52:43.913Z,28.00
2019-05-14T15:55:21.481Z,28.00
2019-05-14T15:57:58.918Z,28.00
2019-05-14T16:00:30.121Z,27.90
2019-05-14T16:03:08.927Z,27.90
2019-05-14T16:05:45.169Z,27.90
2019-05-14T16:08:22.203Z,27.90
2019-05-14T16:10:51.694Z,27.90
2019-05-14T16:13:29.334Z,27.80
2019-05-14T16:16:02.077Z,27.80
2019-05-14T16:18:35.041Z,27.70
2019-05-14T16:21:10.613Z,27.60
2019-05-14T16:23:42.053Z,27.50
2019-05-14T16:26:18.805Z,27.50
2019-05-14T16:28:59.253Z,27.40
2019-05-14T16:31:31.817Z,27.40
2019-05-14T16:34:05.049Z,27.40
2019-05-14T16:36:41.184Z,27.30
2019-05-14T16:39:14.648Z,27.30
2019-05-14T16:41:48.998Z,27.20
2019-05-14T16:44:22.341Z,27.20
2019-05-14T16:47:09.877Z,27.10
2019-05-14T16:49:42.504Z,27.20
2019-05-14T16:52:18.109Z,27.20
2019-05-14T16:55:01.825Z,27.20
2019-05-14T16:57:29.297Z,27.20
2019-05-14T17:00:03.161Z,27.20
2019-05-14T17:02:36.453Z,27.20
2019-05-14T17:05:09.819Z,27.20
2019-05-14T17:07:41.669Z,27.20
2019-05-14T17:10:15.241Z,27.20
2019-05-14T17:12:57.035Z,27.30
2019-05-14T17:15:28.603Z,27.30
2019-05-14T17:18:01.573Z,27.20
2019-05-14T17:20:33.009Z,27.20
2019-05-14T17:23:09.079Z,27.20
2019-05-14T17:25:43.290Z,27.10
2019-05-14T17:28:15.964Z,27.10
2019-05-14T17:30:49.164Z,27.10
2019-05-14T17:33:23.811Z,27.20
2019-05-14T17:35:58.926Z,27.20
2019-05-14T17:38:30.388Z,27.20
2019-05-14T17:41:10.817Z,27.30
2019-05-14T17:43:43.509Z,27.20
2019-05-14T17:46:21.557Z,27.30
2019-05-14T17:48:54.224Z,27.30
2019-05-14T17:51:25.698Z,27.30
2019-05-14T17:54:02.018Z,27.30
2019-05-14T17:56:33.463Z,27.30
2019-05-14T17:59:06.061Z,27.30
2019-05-14T18:01:39.096Z,27.30
2019-05-14T18:04:12.688Z,27.30
2019-05-14T18:06:44.346Z,27.40
2019-05-14T18:09:19.774Z,27.40
2019-05-14T18:11:51.643Z,27.40
2019-05-14T18:14:24.288Z,27.40
2019-05-14T18:16:58.296Z,27.40
2019-05-14T18:19:29.173Z,27.40
2019-05-14T18:22:01.897Z,27.30
2019-05-14T18:24:33.437Z,27.30
2019-05-14T18:27:08.202Z,27.30
2019-05-14T18:29:44.363Z,27.30
2019-05-14T18:32:19.485Z,27.30
2019-05-14T18:34:53.832Z,27.30
2019-05-14T18:37:28.861Z,27.30
2019-05-14T18:40:00.652Z,27.30
2019-05-14T18:42:33.665Z,27.10
2019-05-14T18:45:09.132Z,27.10
2019-05-14T18:47:40.649Z,27.00
2019-05-14T18:50:12.136Z,27.00
2019-05-14T18:52:48.525Z,26.90
2019-05-14T18:55:20.092Z,26.90
2019-05-14T18:57:51.957Z,26.80
2019-05-14T19:00:24.338Z,26.80
2019-05-14T19:02:57.152Z,26.70
2019-05-14T19:05:32.448Z,26.70
2019-05-14T19:08:05.414Z,26.70
2019-05-14T19:10:39.027Z,26.70
2019-05-14T19:13:12.805Z,26.70
2019-05-14T19:15:48.981Z,26.70
2019-05-14T19:18:21.496Z,26.70
2019-05-14T19:20:54.287Z,26.80
2019-05-14T19:23:25.874Z,26.70
2019-05-14T19:25:59.883Z,26.70
2019-05-14T19:28:32.817Z,26.60
2019-05-14T19:31:05.692Z,26.60
2019-05-14T19:33:38.052Z,26.60
2019-05-14T19:36:09.553Z,26.50
2019-05-14T19:38:42.653Z,26.50
2019-05-14T19:41:15.317Z,26.50
2019-05-14T19:43:48.093Z,26.50
2019-05-14T19:46:22.687Z,26.50
2019-05-14T19:48:55.302Z,26.50
2019-05-14T19:51:30.061Z,26.50
2019-05-14T19:54:02.676Z,26.50
2019-05-14T19:56:47.131Z,26.50
2019-05-14T19:59:13.374Z,26.50
2019-05-14T20:01:48.239Z,26.40
2019-05-14T20:04:20.500Z,26.40
2019-05-14T20:06:53.049Z,26.40
2019-05-14T20:09:24.792Z,26.40
2019-05-14T20:11:59.381Z,26.40
2019-05-14T20:14:33.980Z,26.40
2019-05-14T20:17:05.644Z,26.40
2019-05-14T20:19:39.659Z,26.40
2019-05-14T20:22:13.935Z,26.40
2019-05-14T20:24:45.485Z,26.40
2019-05-14T20:27:18.134Z,26.40
2019-05-14T20:29:51.663Z,26.40
2019-05-14T20:32:23.250Z,26.40
2019-05-14T20:34:57.916Z,26.40
2019-05-14T20:37:29.622Z,26.40
2019-05-14T20:40:04.225Z,26.40
2019-05-14T20:42:38.710Z,26.40
2019-05-14T20:45:09.263Z,26.30
2019-05-14T20:47:42.068Z,26.30
2019-05-14T20:50:14.758Z,26.30
2019-05-14T20:52:48.344Z,26.20
2019-05-14T20:55:19.705Z,26.30
2019-05-14T20:57:51.384Z,26.30
2019-05-14T21:00:26.140Z,26.30
2019-05-14T21:02:59.499Z,26.30
2019-05-14T21:05:32.139Z,26.30
2019-05-14T21:08:04.785Z,26.30
2019-05-14T21:10:38.439Z,26.30
2019-05-14T21:13:10.327Z,26.30
2019-05-14T21:15:48.159Z,26.30
2019-05-14T21:18:34.345Z,26.30
2019-05-14T21:20:57.560Z,26.40
2019-05-14T21:23:30.005Z,26.40
2019-05-14T21:26:01.740Z,26.30
2019-05-14T21:28:34.265Z,26.20
2019-05-14T21:31:10.137Z,26.20
2019-05-14T21:33:39.508Z,26.20
2019-05-14T21:36:12.425Z,26.20
2019-05-14T21:38:45.806Z,26.10
2019-05-14T21:41:20.699Z,26.10
2019-05-14T21:43:53.420Z,26.10
2019-05-14T21:46:24.992Z,26.20
2019-05-14T21:48:58.515Z,26.20
2019-05-14T21:51:31.220Z,26.20
2019-05-14T21:54:03.996Z,26.20
2019-05-14T21:56:35.233Z,26.10
2019-05-14T21:59:09.861Z,26.20
2019-05-14T22:01:41.327Z,26.10
2019-05-14T22:04:14.160Z,26.20
2019-05-14T22:06:45.668Z,26.10
2019-05-14T22:09:18.741Z,26.20
2019-05-14T22:11:54.039Z,26.10
2019-05-14T22:14:28.332Z,26.10
2019-05-14T22:17:02.646Z,26.10
2019-05-14T22:19:38.255Z,26.10
2019-05-14T22:22:08.830Z,26.10
2019-05-14T22:24:43.802Z,26.10
2019-05-14T22:27:18.337Z,26.10
2019-05-14T22:29:50.380Z,26.10
2019-05-14T22:32:23.936Z,26.10
2019-05-14T22:34:55.283Z,26.10
2019-05-14T22:37:29.715Z,26.00
2019-05-14T22:40:01.081Z,26.00
2019-05-14T22:42:34.082Z,26.00
2019-05-14T22:45:09.156Z,26.00
2019-05-14T22:47:40.920Z,26.00
2019-05-14T22:50:13.828Z,26.00
2019-05-14T22:52:45.341Z,26.00
2019-05-14T22:55:17.918Z,26.00
2019-05-14T22:57:50.743Z,26.10
2019-05-14T23:00:28.459Z,26.10
2019-05-14T23:02:59.931Z,26.10
2019-05-14T23:05:32.678Z,26.10
2019-05-14T23:08:05.253Z,26.20
2019-05-14T23:10:40.780Z,26.20
2019-05-14T23:13:14.483Z,26.20
2019-05-14T23:15:51.812Z,26.20
2019-05-14T23:18:24.436Z,26.30
2019-05-14T23:20:58.993Z,26.30
2019-05-14T23:23:31.212Z,26.40
2019-05-14T23:26:04.056Z,26.40
2019-05-14T23:28:44.397Z,26.30
2019-05-14T23:31:08.551Z,26.30
2019-05-14T23:33:43.132Z,26.30
2019-05-14T23:36:18.278Z,26.40
2019-05-14T23:38:49.869Z,26.40
2019-05-14T23:41:24.351Z,26.40
2019-05-14T23:43:59.385Z,26.40
2019-05-14T23:46:34.104Z,26.40
2019-05-14T23:49:08.914Z,26.40
2019-05-14T23:51:41.185Z,26.50
2019-05-14T23:54:19.205Z,26.50
2019-05-14T23:56:53.224Z,26.50
2019-05-14T23:59:25.623Z,26.50
